Time;durP1;ratioP1;P1;durP2;ratioP2;P2;SDS_P1;SDS_P2;PMS_P1;PMS_P2;Temp;Humidity;BMP_temperature;BMP_pressure;BME280_temperature;BME280_humidity;BME280_pressure;Samples;Min_cycle;Max_cycle;Signal;HPM_P1;HPM_P2
2021/07/29 00:01:09;;;;;;;5.05;4.65;;;;;;;23.84;72.70;100849.84;5046935;27;102586;-51
2021/07/29 00:03:38;;;;;;;4.55;4.15;;;;;;;23.86;72.76;100847.53;5048775;27;102135;-50
2021/07/29 00:06:04;;;;;;;;;;;;;;;23.86;72.63;100861.44;5043708;27;103816;-51
2021/07/29 00:08:31;;;;;;;4.78;4.38;;;;;;;23.85;72.99;100857.03;5049553;27;103197;-51
2021/07/29 00:10:57;;;;;;;5.05;4.55;;;;;;;23.84;72.77;100847.91;5048396;27;102274;-51
2021/07/29 00:13:24;;;;;;;5.18;4.78;;;;;;;23.85;72.90;100851.47;5048205;27;102286;-50
2021/07/29 00:15:52;;;;;;;5.13;4.72;;;;;;;23.84;72.92;100856.25;5047058;27;103798;-51
2021/07/29 00:20:47;;;;;;;4.68;4.28;;;;;;;23.85;72.83;100852.28;5045043;27;102599;-51
2021/07/29 00:23:13;;;;;;;4.57;4.27;;;;;;;23.85;72.75;100855.06;5047336;27;102243;-50
2021/07/29 00:25:40;;;;;;;5.28;4.80;;;;;;;23.85;72.70;100863.41;5049023;27;103859;-51
2021/07/29 00:28:06;;;;;;;4.90;4.40;;;;;;;23.85;72.68;100851.47;5045623;27;102117;-51
2021/07/29 00:30:33;;;;;;;5.18;4.68;;;;;;;23.84;72.76;100861.78;5049132;27;102495;-51
2021/07/29 00:33:00;;;;;;;4.78;4.38;;;;;;;23.85;72.80;100857.03;5049453;27;102148;-51
2021/07/29 00:35:26;;;;;;;4.72;4.40;;;;;;;23.85;72.91;100859.81;5048281;27;103902;-51
2021/07/29 00:38:00;;;;;;;5.10;4.70;;;;;;;23.85;72.75;100855.06;5044204;27;102090;-50
2021/07/29 00:40:27;;;;;;;4.95;4.47;;;;;;;23.86;72.72;100850.31;5042677;27;102537;-51
2021/07/29 00:42:55;;;;;;;4.50;4.10;;;;;;;23.83;72.76;100854.59;5049077;27;102171;-51
2021/07/29 00:45:21;;;;;;;4.55;4.15;;;;;;;23.84;72.94;100852.63;5046816;27;103940;-51
2021/07/29 00:47:48;;;;;;;4.70;4.30;;;;;;;23.84;72.96;100849.84;5046310;27;102563;-50
2021/07/29 00:50:15;;;;;;;5.00;4.60;;;;;;;23.86;72.80;100858.66;5042947;27;103924;-51
2021/07/29 00:52:44;;;;;;;5.15;4.40;;;;;;;23.85;72.88;100848.72;5046788;27;102708;-51
2021/07/29 00:55:13;;;;;;;;;;;;;;;23.85;72.82;100845.94;5046249;27;103657;-51
2021/07/29 00:57:39;;;;;;;5.60;4.80;;;;;;;23.83;72.74;100849.03;5045084;27;103000;-51
2021/07/29 01:00:07;;;;;;;4.72;4.30;;;;;;;23.84;72.74;100844.28;5042860;27;102588;-51
2021/07/29 01:02:33;;;;;;;4.72;4.32;;;;;;;23.83;72.75;100840.72;5034777;27;103150;-51
2021/07/29 01:05:00;;;;;;;5.13;4.63;;;;;;;23.85;72.80;100834.81;5033504;27;103873;-50
2021/07/29 01:07:27;;;;;;;4.95;4.20;;;;;;;23.85;72.79;100840.38;5036906;27;102472;-51
2021/07/29 01:09:53;;;;;;;5.53;4.05;;;;;;;23.83;72.60;100826.81;5052638;27;102673;-51
2021/07/29 01:12:21;;;;;;;5.07;4.28;;;;;;;23.83;73.08;100821.25;5053548;27;102159;-51
2021/07/29 01:14:47;;;;;;;4.37;4.07;;;;;;;23.84;72.87;100816.50;5050964;27;104119;-51
2021/07/29 01:17:14;;;;;;;5.22;4.30;;;;;;;23.83;72.95;100814.91;5050750;27;102592;-51
2021/07/29 01:19:41;;;;;;;5.35;4.60;;;;;;;23.84;72.94;100824.84;5048173;27;102496;-51
2021/07/29 01:22:09;;;;;;;4.60;4.20;;;;;;;23.83;72.81;100818.47;5047234;27;102707;-51
2021/07/29 01:24:35;;;;;;;4.63;4.22;;;;;;;23.84;72.87;100827.63;5046044;27;103896;-51
2021/07/29 01:27:02;;;;;;;4.53;4.13;;;;;;;23.83;72.87;100823.22;5050728;27;102255;-51
2021/07/29 01:29:29;;;;;;;4.57;4.18;;;;;;;23.82;72.81;100825.22;5054814;27;103216;-51
2021/07/29 01:31:57;;;;;;;4.55;4.15;;;;;;;23.82;73.01;100818.84;5051064;27;102657;-51
2021/07/29 01:34:24;;;;;;;4.82;4.40;;;;;;;23.83;72.88;100821.25;5051319;27;103960;-50
2021/07/29 01:36:51;;;;;;;4.38;3.97;;;;;;;23.83;72.66;100817.66;5053030;27;102478;-52
2021/07/29 01:39:19;;;;;;;4.30;4.00;;;;;;;23.83;72.86;100814.91;5059214;27;102408;-51
2021/07/29 01:41:45;;;;;;;5.40;4.10;;;;;;;23.82;72.94;100814.09;5063105;27;102574;-51
2021/07/29 01:44:12;;;;;;;4.30;3.90;;;;;;;23.83;72.69;100820.44;5064372;27;103127;-51
2021/07/29 01:46:39;;;;;;;4.40;4.10;;;;;;;23.83;72.85;100826.00;5044395;27;102010;-51
2021/07/29 01:49:05;;;;;;;4.15;3.85;;;;;;;23.83;72.97;100828.78;5049481;27;102622;-51
2021/07/29 01:51:33;;;;;;;4.63;4.22;;;;;;;23.82;72.95;100836.31;5051360;27;102571;-51
2021/07/29 01:53:59;;;;;;;5.80;4.18;;;;;;;23.83;72.83;100837.94;5052460;27;103951;-51
2021/07/29 01:56:28;;;;;;;4.43;4.03;;;;;;;23.82;72.79;100844.66;5051381;27;102484;-51
2021/07/29 01:58:55;;;;;;;4.20;3.88;;;;;;;23.83;72.63;100842.69;5049800;27;102354;-51
2021/07/29 02:01:23;;;;;;;4.65;4.25;;;;;;;23.82;73.05;100841.06;5053548;27;102619;-51
2021/07/29 02:03:50;;;;;;;4.10;3.80;;;;;;;23.83;72.79;100837.13;5051926;27;102666;-51
2021/07/29 02:06:16;;;;;;;4.13;3.72;;;;;;;23.82;72.84;100830.75;5050732;27;102643;-51
2021/07/29 02:08:59;;;;;;;4.45;4.05;;;;;;;23.82;72.87;100832.75;5048014;27;102452;-51
2021/07/29 02:11:30;;;;;;;5.97;4.35;;;;;;;23.82;73.04;100824.41;5037951;27;102720;-51
2021/07/29 02:13:57;;;;;;;4.07;3.78;;;;;;;23.82;72.87;100813.28;5041072;27;103879;-51
2021/07/29 02:16:25;;;;;;;4.30;3.85;;;;;;;23.82;72.70;100799.41;5041742;27;102756;-51
2021/07/29 02:18:52;;;;;;;4.13;3.72;;;;;;;23.81;72.97;100795.00;5045471;27;102235;-51
2021/07/29 02:21:19;;;;;;;3.70;3.40;;;;;;;23.81;73.03;100797.78;5051444;27;102602;-51
2021/07/29 02:23:45;;;;;;;4.88;4.47;;;;;;;23.82;72.73;100791.06;5049705;27;104013;-50
2021/07/29 02:26:12;;;;;;;5.18;4.10;;;;;;;23.82;72.95;100785.50;5048609;27;102418;-51
2021/07/29 02:28:42;;;;;;;4.85;4.30;;;;;;;23.82;72.96;100779.94;5057753;27;102385;-51
2021/07/29 02:31:08;;;;;;;4.65;4.20;;;;;;;23.82;72.92;100796.63;5048005;27;102501;-51
2021/07/29 02:33:35;;;;;;;4.63;4.07;;;;;;;23.81;72.90;100800.56;5049943;27;104015;-51
2021/07/29 02:36:02;;;;;;;4.57;3.90;;;;;;;23.80;72.83;100793.38;5041740;27;102625;-51
2021/07/29 02:38:31;;;;;;;4.57;4.13;;;;;;;23.81;72.86;100800.56;5038763;27;102470;-50
2021/07/29 02:40:57;;;;;;;5.15;3.97;;;;;;;23.80;72.71;100793.38;5052661;27;102341;-51
2021/07/29 02:43:24;;;;;;;4.75;3.90;;;;;;;23.81;72.69;100806.94;5045664;27;103825;-50
2021/07/29 02:45:52;;;;;;;4.47;3.78;;;;;;;23.80;72.81;100799.78;5049799;27;102435;-51
2021/07/29 02:48:19;;;;;;;4.10;3.50;;;;;;;23.81;72.71;100795.00;5049377;27;102381;-51
2021/07/29 02:50:51;;;;;;;4.45;4.05;;;;;;;23.80;72.82;100804.50;5046407;27;102423;-51
2021/07/29 02:53:18;;;;;;;4.38;3.97;;;;;;;23.81;72.67;100806.13;5044785;27;103916;-51
2021/07/29 02:55:44;;;;;;;4.05;3.67;;;;;;;23.80;73.12;100812.81;5049095;27;102500;-51
2021/07/29 02:58:11;;;;;;;4.40;4.00;;;;;;;23.81;73.01;100815.25;5048890;27;102507;-51
2021/07/29 03:00:38;;;;;;;5.47;3.97;;;;;;;23.80;73.09;100812.81;5044645;27;102389;-51
2021/07/29 03:03:05;;;;;;;6.60;4.10;;;;;;;23.82;72.97;100813.28;5044834;27;105682;-51
2021/07/29 03:05:33;;;;;;;3.90;3.60;;;;;;;23.80;72.75;100822.00;5043130;27;101977;-51
2021/07/29 03:07:59;;;;;;;5.72;3.78;;;;;;;23.82;73.07;100818.84;5046941;27;102839;-51
2021/07/29 03:10:27;;;;;;;5.78;3.78;;;;;;;23.82;72.80;100807.72;5051563;27;102776;-51
2021/07/29 03:12:54;;;;;;;4.38;3.95;;;;;;;23.81;73.02;100800.56;5037787;27;103904;-51
2021/07/29 03:15:21;;;;;;;4.35;3.95;;;;;;;23.80;72.91;100796.16;5057523;22;102519;-50
2021/07/29 03:17:47;;;;;;;3.70;3.40;;;;;;;23.80;72.91;100798.94;4962587;28;102645;-50
2021/07/29 03:20:15;;;;;;;4.28;3.75;;;;;;;23.80;72.89;100793.38;4952446;28;102578;-49
2021/07/29 03:22:42;;;;;;;4.32;3.92;;;;;;;23.79;72.77;100780.66;4950685;28;103980;-49
2021/07/29 03:25:10;;;;;;;4.68;4.00;;;;;;;23.79;72.83;100777.88;4937689;28;102372;-50
2021/07/29 03:27:37;;;;;;;4.55;3.58;;;;;;;23.79;72.68;100780.66;4957192;28;102439;-49
2021/07/29 03:30:04;;;;;;;4.22;3.83;;;;;;;23.78;72.74;100768.75;4946061;28;102899;-49
2021/07/29 03:32:31;;;;;;;4.00;3.70;;;;;;;23.79;72.65;100764.78;4947372;28;103876;-49
2021/07/29 03:34:57;;;;;;;4.85;4.00;;;;;;;23.80;72.83;100780.31;4949682;28;102491;-49
2021/07/29 03:37:25;;;;;;;3.72;3.40;;;;;;;23.80;72.82;100777.53;4948382;28;102851;-49
2021/07/29 03:39:53;;;;;;;4.13;3.72;;;;;;;23.80;73.07;100779.47;4949715;28;102455;-49
2021/07/29 03:42:22;;;;;;;5.18;3.50;;;;;;;23.80;72.92;100790.59;4947090;28;103884;-50
2021/07/29 03:44:49;;;;;;;4.35;3.92;;;;;;;23.81;72.73;100789.44;4948329;28;102124;-49
2021/07/29 03:47:17;;;;;;;3.90;3.60;;;;;;;23.81;73.08;100789.44;4949555;28;102684;-50
2021/07/29 03:49:43;;;;;;;4.93;3.90;;;;;;;23.81;72.87;100797.78;4949124;28;102734;-50
2021/07/29 03:52:10;;;;;;;4.32;3.92;;;;;;;23.80;72.68;100799.78;4942683;28;104009;-50
2021/07/29 03:54:38;;;;;;;4.05;3.70;;;;;;;23.81;73.03;100803.34;4957895;28;102470;-50
2021/07/29 03:57:08;;;;;;;3.55;3.25;;;;;;;23.81;72.83;100793.03;4948219;28;102926;-49
2021/07/29 03:59:35;;;;;;;4.45;3.80;;;;;;;23.82;72.67;100796.63;4949861;28;102666;-50
2021/07/29 04:02:09;;;;;;;4.82;3.80;;;;;;;23.82;72.90;100788.28;4948634;28;104059;-51
2021/07/29 04:04:37;;;;;;;4.03;3.42;;;;;;;23.82;72.64;100796.63;4952026;28;104677;-51
2021/07/29 04:07:05;;;;;;;4.15;3.65;;;;;;;23.82;72.80;100804.94;4947492;28;103325;-50
2021/07/29 04:09:31;;;;;;;3.90;3.60;;;;;;;23.83;72.66;100803.78;4952323;28;102488;-50
2021/07/29 04:12:00;;;;;;;3.97;3.67;;;;;;;23.83;72.79;100803.78;4949148;28;103908;-50
2021/07/29 04:14:27;;;;;;;3.72;3.35;;;;;;;23.83;72.88;100795.44;4945774;28;102756;-50
2021/07/29 04:16:56;;;;;;;3.80;3.50;;;;;;;23.82;72.78;100802.16;4948332;28;102743;-50
2021/07/29 04:19:22;;;;;;;4.03;3.63;;;;;;;23.83;72.87;100803.78;4950718;28;102640;-50
2021/07/29 04:21:49;;;;;;;4.60;3.58;;;;;;;23.84;72.68;100800.66;4947749;28;104048;-49
2021/07/29 04:24:16;;;;;;;3.83;3.53;;;;;;;23.85;72.91;100807.00;4956975;28;102473;-49
2021/07/29 04:26:43;;;;;;;3.85;3.50;;;;;;;23.84;72.66;100799.81;4948554;28;102480;-50
2021/07/29 04:29:11;;;;;;;3.80;3.50;;;;;;;23.85;72.80;100795.91;4949381;28;102373;-50
2021/07/29 04:31:37;;;;;;;4.63;4.00;;;;;;;23.85;72.54;100790.34;4946898;28;104226;-50
2021/07/29 04:34:04;;;;;;;3.47;3.17;;;;;;;23.83;72.67;100790.69;4947272;28;102893;-50
2021/07/29 04:36:39;;;;;;;4.93;3.78;;;;;;;23.84;72.75;100799.81;4949249;28;102757;-50
2021/07/29 04:39:06;;;;;;;4.05;3.65;;;;;;;23.84;72.59;100805.38;4949832;28;102709;-50
2021/07/29 04:41:33;;;;;;;3.75;3.45;;;;;;;23.84;72.93;100810.94;4947822;28;103936;-49
2021/07/29 04:44:00;;;;;;;3.80;3.50;;;;;;;23.86;72.75;100814.19;4949234;28;102574;-50
2021/07/29 04:46:28;;;;;;;5.32;3.42;;;;;;;23.86;72.75;100819.75;4950986;28;102075;-50
2021/07/29 04:48:54;;;;;;;3.90;3.50;;;;;;;23.85;72.67;100812.56;4952418;28;102450;-50
2021/07/29 04:51:21;;;;;;;4.07;3.70;;;;;;;23.84;72.69;100809.00;4941156;28;103831;-50
2021/07/29 04:53:47;;;;;;;4.35;3.95;;;;;;;23.85;72.74;100818.13;4939135;28;102125;-49
2021/07/29 04:56:14;;;;;;;3.88;3.33;;;;;;;23.85;72.93;100816.16;4945287;28;102362;-49
2021/07/29 04:58:41;;;;;;;3.95;3.40;;;;;;;23.86;72.91;100825.28;4954013;28;102803;-49
2021/07/29 05:01:07;;;;;;;4.10;3.40;;;;;;;23.87;72.72;100824.13;4944595;28;103880;-50
2021/07/29 05:03:36;;;;;;;3.88;3.53;;;;;;;23.87;72.69;100824.13;4952169;28;102448;-50
2021/07/29 05:06:02;;;;;;;5.95;3.40;;;;;;;23.87;72.62;100821.34;4951237;28;102556;-50
2021/07/29 05:08:30;;;;;;;4.43;3.55;;;;;;;23.88;73.06;100822.97;4952068;28;102740;-49
2021/07/29 05:10:56;;;;;;;3.70;3.40;;;;;;;23.88;72.71;100823.78;4952119;28;102777;-49
2021/07/29 05:13:23;;;;;;;5.03;3.58;;;;;;;23.89;72.80;100817.03;4950786;28;102018;-49
2021/07/29 05:15:51;;;;;;;3.63;3.33;;;;;;;23.90;72.78;100806.72;4951152;28;102304;-49
2021/07/29 05:18:17;;;;;;;4.55;3.53;;;;;;;23.91;72.77;100805.56;4956482;28;102435;-49
2021/07/29 05:20:45;;;;;;;3.50;3.20;;;;;;;23.92;73.01;100809.97;4946996;28;104015;-50
2021/07/29 05:23:11;;;;;;;3.47;3.17;;;;;;;23.92;72.90;100812.75;4942953;28;102792;-49
2021/07/29 05:25:38;;;;;;;3.55;3.25;;;;;;;23.94;72.64;100802.06;4949892;28;102863;-50
2021/07/29 05:28:05;;;;;;;3.55;3.25;;;;;;;23.95;72.75;100801.72;4950611;28;102515;-50
2021/07/29 05:30:31;;;;;;;3.83;3.33;;;;;;;23.95;72.34;100800.91;4949996;28;104066;-50
2021/07/29 05:32:58;;;;;;;4.63;3.05;;;;;;;23.96;72.54;100796.97;4949691;28;102540;-50
2021/07/29 05:35:25;;;;;;;3.38;3.00;;;;;;;23.98;72.59;100800.16;4951922;28;102420;-50
2021/07/29 05:37:53;;;;;;;3.90;3.17;;;;;;;23.97;72.35;100790.22;4960434;28;102175;-50
2021/07/29 05:40:20;;;;;;;3.85;3.50;;;;;;;23.99;72.60;100790.69;4949210;28;104177;-50
2021/07/29 05:42:47;;;;;;;3.50;3.20;;;;;;;24.00;72.54;100797.06;4945246;28;102184;-52
2021/07/29 05:45:14;;;;;;;3.80;3.40;;;;;;;24.01;72.51;100793.91;4951333;28;102303;-50
2021/07/29 05:47:43;;;;;;;3.42;3.13;;;;;;;24.03;72.46;100794.34;4950776;28;102603;-50
2021/07/29 05:50:11;;;;;;;3.08;2.80;;;;;;;24.03;72.61;100788.78;4948518;28;103888;-50
2021/07/29 05:52:38;;;;;;;3.60;3.30;;;;;;;24.04;72.68;100793.19;4947077;28;102459;-49
2021/07/29 05:55:06;;;;;;;2.97;2.78;;;;;;;24.05;72.51;100794.78;4946802;28;102513;-50
2021/07/29 05:57:33;;;;;;;3.78;3.35;;;;;;;24.06;72.33;100801.97;4949880;28;102495;-50
2021/07/29 06:00:00;;;;;;;4.13;3.25;;;;;;;24.07;72.57;100792.47;4945915;28;103895;-50
2021/07/29 06:02:27;;;;;;;3.78;2.88;;;;;;;24.09;72.23;100792.91;4947147;28;103200;-49
2021/07/29 06:04:53;;;;;;;3.38;3.03;;;;;;;24.09;72.35;100781.81;4947767;28;102940;-50
2021/07/29 06:07:21;;;;;;;3.17;2.97;;;;;;;24.11;72.43;100775.88;4947509;28;102523;-49
2021/07/29 06:09:47;;;;;;;2.97;2.78;;;;;;;24.13;72.38;100788.25;4947074;28;103877;-50
2021/07/29 06:12:16;;;;;;;3.00;2.75;;;;;;;24.14;72.72;100786.25;4944953;28;102243;-50
2021/07/29 06:14:45;;;;;;;3.03;2.72;;;;;;;24.15;72.40;100774.78;4944987;28;103808;-50
2021/07/29 06:17:14;;;;;;;3.00;2.80;;;;;;;24.15;72.59;100771.19;4946839;28;103361;-50
2021/07/29 06:19:42;;;;;;;3.20;2.90;;;;;;;24.16;72.53;100762.50;4943154;28;103861;-50
2021/07/29 06:22:08;;;;;;;3.08;2.88;;;;;;;24.18;72.18;100770.47;4945185;28;102271;-50
2021/07/29 06:24:36;;;;;;;3.45;3.15;;;;;;;24.19;72.60;100772.06;4947391;28;103372;-50
2021/07/29 06:27:03;;;;;;;3.00;2.80;;;;;;;24.19;72.58;100767.31;4948180;28;102866;-49
2021/07/29 06:29:31;;;;;;;3.10;2.90;;;;;;;24.21;72.34;100765.00;4943695;28;104256;-50
2021/07/29 06:31:57;;;;;;;3.73;3.30;;;;;;;24.22;72.33;100765.78;4946098;28;103999;-50
2021/07/29 06:34:24;;;;;;;3.10;2.80;;;;;;;24.22;72.32;100766.59;4948234;28;102837;-50
2021/07/29 06:36:51;;;;;;;3.90;3.00;;;;;;;24.24;72.22;100771.81;4947019;28;103941;-52
2021/07/29 06:39:17;;;;;;;3.47;3.17;;;;;;;24.24;72.08;100771.81;4945012;28;103853;-50
2021/07/29 06:41:44;;;;;;;2.92;2.72;;;;;;;24.25;72.36;100778.97;4946832;28;103243;-49
2021/07/29 06:44:11;;;;;;;3.00;2.70;;;;;;;24.27;72.40;100773.03;4945533;28;102518;-50
2021/07/29 06:46:39;;;;;;;3.03;2.67;;;;;;;24.28;72.18;100769.09;4947438;28;102558;-50
2021/07/29 06:49:06;;;;;;;3.33;3.00;;;;;;;24.28;72.19;100769.09;4946387;28;103930;-50
2021/07/29 06:51:34;;;;;;;3.25;2.63;;;;;;;24.28;72.07;100771.88;4945538;28;102410;-50
2021/07/29 06:54:01;;;;;;;3.10;2.80;;;;;;;24.28;72.12;100764.34;4946306;28;102780;-50
2021/07/29 06:56:28;;;;;;;2.90;2.70;;;;;;;24.31;72.09;100779.50;4949349;28;102145;-50
2021/07/29 06:58:54;;;;;;;2.78;2.58;;;;;;;24.30;72.02;100770.34;4938819;28;103735;-50
2021/07/29 07:01:21;;;;;;;2.78;2.50;;;;;;;24.32;72.08;100778.34;4949501;28;102314;-50
2021/07/29 07:03:49;;;;;;;3.45;2.75;;;;;;;24.33;72.09;100782.72;4948035;28;102480;-50
2021/07/29 07:06:16;;;;;;;2.70;2.50;;;;;;;24.33;71.83;100777.16;4949303;28;103175;-50
2021/07/29 07:08:43;;;;;;;3.38;2.65;;;;;;;24.33;71.87;100775.19;4946052;28;104063;-50
2021/07/29 07:11:14;;;;;;;2.83;2.63;;;;;;;24.35;72.08;100772.03;4951184;28;101943;-50
2021/07/29 07:13:49;;;;;;;2.85;2.65;;;;;;;24.35;71.86;100770.06;4945803;28;102423;-50
2021/07/29 07:16:16;;;;;;;3.67;2.80;;;;;;;24.37;71.95;100769.69;4951431;28;102198;-50
2021/07/29 07:18:43;;;;;;;3.33;3.03;;;;;;;24.37;72.00;100761.34;4953620;28;103906;-50
2021/07/29 07:21:11;;;;;;;2.90;2.67;;;;;;;24.37;71.85;100769.69;4951485;28;102326;-50
2021/07/29 07:23:40;;;;;;;2.90;2.58;;;;;;;24.38;71.92;100762.97;4946100;28;102379;-50
2021/07/29 07:26:13;;;;;;;;;;;;;;;24.39;71.91;100770.16;4964932;28;102973;-50
2021/07/29 07:28:40;;;;;;;3.00;2.80;;;;;;;24.39;71.82;100761.81;4948542;28;104042;-50
2021/07/29 07:31:07;;;;;;;3.20;2.67;;;;;;;24.40;72.05;100757.88;4949755;28;102284;-50
2021/07/29 07:33:34;;;;;;;3.45;3.15;;;;;;;24.40;71.92;100763.44;4952038;28;102231;-50
2021/07/29 07:36:01;;;;;;;3.00;2.67;;;;;;;24.40;71.70;100767.03;4954748;28;102602;-50
2021/07/29 07:38:29;;;;;;;3.20;2.88;;;;;;;24.40;71.86;100766.22;4946864;28;103922;-50
2021/07/29 07:40:55;;;;;;;3.83;2.88;;;;;;;24.41;71.84;100762.25;4949415;28;102324;-50
2021/07/29 07:43:22;;;;;;;2.75;2.55;;;;;;;24.42;71.84;100764.69;4947226;28;102033;-50
2021/07/29 07:45:50;;;;;;;2.97;2.67;;;;;;;24.42;71.89;100763.88;4951911;28;102569;-50
2021/07/29 07:48:17;;;;;;;3.28;2.75;;;;;;;24.42;72.03;100761.91;4952833;28;103894;-50
2021/07/29 07:50:43;;;;;;;4.13;3.00;;;;;;;24.42;71.78;100761.09;4950556;28;102248;-49
2021/07/29 07:53:10;;;;;;;3.03;2.78;;;;;;;24.43;71.95;100762.72;4945098;28;102123;-50
2021/07/29 07:55:38;;;;;;;2.95;2.65;;;;;;;24.43;71.74;100754.38;4956492;28;106543;-50
2021/07/29 07:58:04;;;;;;;3.45;3.08;;;;;;;24.44;71.82;100767.09;4956866;28;103720;-51
2021/07/29 08:00:31;;;;;;;4.28;2.95;;;;;;;24.44;71.71;100761.53;4959799;28;102541;-50
2021/07/29 08:02:58;;;;;;;2.83;2.50;;;;;;;24.45;71.80;100760.34;4960440;28;102375;-50
2021/07/29 08:05:24;;;;;;;3.53;2.50;;;;;;;24.45;71.75;100757.56;4962089;28;102199;-50
2021/07/29 08:07:51;;;;;;;2.88;2.67;;;;;;;24.45;71.72;100752.84;4957862;28;104121;-50
2021/07/29 08:10:19;;;;;;;;;;;;;;;24.47;71.66;100758.03;4950720;28;102767;-50
2021/07/29 08:12:47;;;;;;;3.47;2.90;;;;;;;24.47;71.86;100752.47;4948368;28;103343;-50
2021/07/29 08:15:15;;;;;;;3.97;2.63;;;;;;;24.48;71.78;100751.28;4941003;28;102845;-50
2021/07/29 08:17:41;;;;;;;3.00;2.70;;;;;;;24.48;71.90;100756.84;4947406;28;103844;-50
2021/07/29 08:20:09;;;;;;;2.67;2.47;;;;;;;24.50;72.00;100748.94;4952602;28;102038;-50
2021/07/29 08:22:36;;;;;;;2.40;2.20;;;;;;;24.50;71.74;100751.75;4950653;28;102730;-49
2021/07/29 08:25:02;;;;;;;3.72;2.67;;;;;;;24.51;71.77;100744.19;4952776;28;102666;-51
2021/07/29 08:27:33;;;;;;;3.17;2.85;;;;;;;24.51;71.86;100746.97;4949983;28;103978;-50
2021/07/29 08:30:02;;;;;;;3.00;2.80;;;;;;;24.50;71.94;100737.81;4952357;28;102031;-50
2021/07/29 08:32:29;;;;;;;3.15;2.90;;;;;;;24.51;71.59;100736.66;4951050;28;102485;-50
2021/07/29 08:34:56;;;;;;;3.15;2.90;;;;;;;24.50;71.64;100731.47;4946759;28;102344;-50
2021/07/29 08:37:23;;;;;;;3.15;2.85;;;;;;;24.51;71.73;100733.88;4946732;28;104224;-50
2021/07/29 08:39:50;;;;;;;2.60;2.40;;;;;;;24.51;71.92;100730.28;4944645;28;102330;-50
2021/07/29 08:42:16;;;;;;;4.25;2.90;;;;;;;;;;4949115;28;102854;-50
2021/07/29 08:44:43;;;;;;;3.53;2.90;;;;;;;24.51;71.85;100727.50;4958823;28;102192;-50
2021/07/29 08:47:14;;;;;;;3.40;3.10;;;;;;;24.51;71.86;100733.06;4951809;28;105848;-50
2021/07/29 08:49:44;;;;;;;4.38;2.63;;;;;;;24.51;71.85;100728.31;4952376;28;102210;-50
2021/07/29 08:52:11;;;;;;;2.95;2.72;;;;;;;24.51;71.79;100725.53;4951519;28;102284;-50
2021/07/29 08:54:39;;;;;;;4.28;3.05;;;;;;;;;;4949875;28;103564;-50
2021/07/29 08:57:05;;;;;;;2.90;2.60;;;;;;;24.51;71.58;100719.97;4949242;28;104112;-50
2021/07/29 08:59:32;;;;;;;3.72;2.90;;;;;;;;;;4953159;28;102573;-50
2021/07/29 09:02:00;;;;;;;3.17;2.90;;;;;;;;;;4961728;28;102665;-50
2021/07/29 09:04:28;;;;;;;4.80;3.20;;;;;;;24.52;71.90;100713.22;4948892;28;102441;-50
2021/07/29 09:06:57;;;;;;;3.38;2.95;;;;;;;;;;4949196;28;103743;-50
2021/07/29 09:09:39;;;;;;;4.63;2.70;;;;;;;;;;4950897;28;102424;-50
2021/07/29 09:12:17;;;;;;;3.50;3.20;;;;;;;24.52;71.84;100710.44;4945509;28;102175;-50
2021/07/29 09:14:45;;;;;;;3.05;2.80;;;;;;;24.51;71.49;100699.69;4954155;28;102463;-50
2021/07/29 09:17:12;;;;;;;3.78;3.10;;;;;;;24.53;71.73;100698.16;4943240;28;104408;-50
2021/07/29 09:19:42;;;;;;;3.42;3.00;;;;;;;24.52;71.62;100702.09;4950846;28;102386;-50
2021/07/29 09:22:14;;;;;;;3.30;3.00;;;;;;;24.53;71.90;100703.72;4948283;28;102728;-50
2021/07/29 09:25:05;;;;;;;4.35;3.25;;;;;;;24.53;71.72;100700.13;4942486;28;102438;-50
2021/07/29 09:27:43;;;;;;;3.33;3.10;;;;;;;;;;4950892;28;103948;-50
2021/07/29 09:30:18;;;;;;;3.65;3.10;;;;;;;24.51;71.67;100694.91;4949668;28;102344;-51
2021/07/29 09:33:00;;;;;;;4.38;3.20;;;;;;;24.52;71.74;100696.53;4947796;28;102481;-50
2021/07/29 09:35:45;;;;;;;3.83;3.45;;;;;;;24.51;71.81;100697.69;4948175;28;102198;-50
2021/07/29 09:38:21;;;;;;;4.18;3.25;;;;;;;;;;4950435;28;104232;-50
2021/07/29 09:40:51;;;;;;;4.28;3.22;;;;;;;24.50;71.65;100696.09;4947739;28;102224;-50
2021/07/29 09:43:19;;;;;;;4.50;3.38;;;;;;;24.50;71.71;100690.53;4950216;28;103337;-50
2021/07/29 09:45:49;;;;;;;3.85;3.45;;;;;;;24.50;71.68;100693.31;4954212;28;102557;-50
2021/07/29 09:48:18;;;;;;;;;;;;;;;24.52;71.65;100690.97;4950220;28;103919;-51
2021/07/29 09:50:45;;;;;;;;;;;;;;;24.51;71.66;100689.34;4946785;28;103943;-50
2021/07/29 09:53:12;;;;;;;4.25;3.30;;;;;;;24.51;71.75;100706.03;4949709;28;102415;-50
2021/07/29 09:55:39;;;;;;;3.55;3.22;;;;;;;24.50;71.44;100707.22;4950283;28;102670;-50
2021/07/29 09:58:06;;;;;;;3.97;3.25;;;;;;;24.49;71.46;100708.41;4948208;28;105129;-50
2021/07/29 10:00:34;;;;;;;3.92;3.50;;;;;;;24.51;71.64;100711.59;4951427;28;103310;-50
2021/07/29 10:03:02;;;;;;;;;;;;;;;24.49;71.74;100708.41;4951478;28;102432;-50
2021/07/29 10:05:37;;;;;;;3.90;3.50;;;;;;;24.50;71.77;100701.66;4957215;28;102320;-50
2021/07/29 10:08:10;;;;;;;5.13;3.45;;;;;;;24.50;71.61;100704.44;4946869;28;103765;-51
2021/07/29 10:10:38;;;;;;;4.38;3.50;;;;;;;24.50;71.73;100701.66;4950600;28;102008;-50
2021/07/29 10:13:05;;;;;;;6.20;3.85;;;;;;;24.49;71.70;100697.28;4945154;28;102555;-52
2021/07/29 10:15:39;;;;;;;5.38;3.83;;;;;;;24.49;71.56;100691.72;4947932;28;102828;-51
2021/07/29 10:18:07;;;;;;;6.18;3.63;;;;;;;24.47;71.61;100688.47;4949159;28;103649;-51
2021/07/29 10:20:35;;;;;;;6.28;4.03;;;;;;;24.48;71.72;100684.53;4949760;28;103400;-50
2021/07/29 10:23:50;;;;;;;4.18;3.75;;;;;;;24.50;71.75;100681.38;4947896;28;102030;-50
2021/07/29 10:26:16;;;;;;;5.97;4.13;;;;;;;24.49;71.67;100686.16;4951344;28;102320;-51
2021/07/29 10:28:44;;;;;;;6.72;4.47;;;;;;;24.49;71.59;100686.16;4949746;28;104123;-51
2021/07/29 10:31:16;;;;;;;4.57;3.88;;;;;;;24.49;71.48;100694.50;4948748;28;102056;-51
2021/07/29 10:33:43;;;;;;;;;;;;;;;24.49;71.60;100691.72;4948021;28;102523;-50
2021/07/29 10:36:41;;;;;;;4.10;3.60;;;;;;;24.49;71.66;100677.81;4948705;28;103046;-51
2021/07/29 10:39:09;;;;;;;4.75;3.65;;;;;;;24.48;71.58;100678.97;4939971;28;103648;-56
2021/07/29 10:41:53;;;;;;;5.70;4.00;;;;;;;24.48;71.56;100673.38;4944663;28;102229;-50
2021/07/29 10:44:46;;;;;;;5.35;3.92;;;;;;;24.47;71.72;100677.34;4947983;28;102550;-50
2021/07/29 10:47:14;;;;;;;5.57;4.10;;;;;;;24.47;71.62;100676.56;4949987;28;102193;-51
2021/07/29 10:50:16;;;;;;;5.22;4.38;;;;;;;24.46;71.87;100670.19;4944888;28;103921;-51
2021/07/29 10:52:47;;;;;;;5.65;4.45;;;;;;;24.47;71.73;100665.44;4941361;28;103477;-51
2021/07/29 10:55:16;;;;;;;5.55;4.07;;;;;;;24.46;71.69;100670.19;4943926;28;102153;-51
2021/07/29 10:58:02;;;;;;;6.93;4.43;;;;;;;24.47;71.71;100669.00;4949072;28;102477;-50
2021/07/29 11:00:28;;;;;;;5.53;4.45;;;;;;;24.47;71.50;100669.00;4948724;28;103719;-51
2021/07/29 11:02:56;;;;;;;5.00;4.50;;;;;;;24.47;71.56;100671.00;4957711;28;102558;-51
2021/07/29 11:05:27;;;;;;;5.38;4.72;;;;;;;24.45;71.72;100674.13;4952401;28;102438;-51
2021/07/29 11:07:54;;;;;;;5.70;4.38;;;;;;;24.45;71.79;100668.56;4949929;28;102710;-51
2021/07/29 11:10:28;;;;;;;6.60;4.68;;;;;;;24.45;71.67;100668.56;4945878;28;104364;-50
2021/07/29 11:12:55;;;;;;;8.13;4.93;;;;;;;24.46;71.58;100653.50;4949546;28;102398;-51
2021/07/29 11:15:22;;;;;;;5.82;4.97;;;;;;;24.45;71.71;100663.00;4948244;28;102059;-51
2021/07/29 11:17:48;;;;;;;5.93;4.70;;;;;;;24.44;71.51;100662.19;4948547;28;102649;-51
2021/07/29 11:20:26;;;;;;;6.85;5.00;;;;;;;24.44;71.65;100661.41;4948673;28;104047;-50
2021/07/29 11:22:53;;;;;;;5.73;4.93;;;;;;;24.45;71.42;100663.00;4949337;28;103505;-50
2021/07/29 11:25:19;;;;;;;5.10;4.60;;;;;;;24.43;71.41;100649.47;4945554;28;102380;-50
2021/07/29 11:27:47;;;;;;;6.72;4.90;;;;;;;24.43;71.57;100659.78;4948202;28;102548;-50
2021/07/29 11:30:14;;;;;;;5.60;4.93;;;;;;;24.45;71.64;100651.88;4950059;28;103389;-50
2021/07/29 11:32:43;;;;;;;7.00;5.03;;;;;;;24.43;71.67;100648.66;4948816;28;102730;-51